ADDS METAR Data

Data at: 0458 UTC 20 Apr 2018

METAR for:CYZX (Greenwood (Mil), NS, CN)
Text:CYZX 200400Z 02006KT 10SM -RA BKN016 OVC028 03/02 A2964 RMK SC5SC3 SLP038
Temperature: 3.0°C ( 37°F)
Dewpoint: 2.0°C ( 36°F) [RH = 93%]
Pressure (altimeter):29.64 inches Hg (1003.8 mb) [Sea level pressure: 1003.8 mb]
Winds:from the NNE (20 degrees) at 7 MPH (6 knots; 3.1 m/s)
Visibility:10 or more sm (16+ km)
Ceiling:1600 feet AGL
Clouds: broken clouds at 1600 feet AGL, overcast cloud deck at 2800 feet AGL
Weather:-RA (light rain)